Time;durP1;ratioP1;P1;durP2;ratioP2;P2;SDS_P1;SDS_P2;PMS_P1;PMS_P2;Temp;Humidity;BMP_temperature;BMP_pressure;BME280_temperature;BME280_humidity;BME280_pressure;Samples;Min_cycle;Max_cycle;Signal;HPM_P1;HPM_P2
2021/09/03 00:01:47;;;;;;;41.73;37.30;;;13.40;99.90;;;;;;5122171;27;20480;-70
2021/09/03 00:04:14;;;;;;;45.60;38.30;;;13.40;99.90;;;;;;5127730;27;20471;-70
2021/09/03 00:06:41;;;;;;;44.93;40.20;;;13.40;99.90;;;;;;5133341;27;20444;-70
2021/09/03 00:09:09;;;;;;;44.90;40.10;;;13.40;99.90;;;;;;5120279;27;20479;-71
2021/09/03 00:11:36;;;;;;;41.93;37.33;;;13.40;99.90;;;;;;5130285;27;20529;-71
2021/09/03 00:14:04;;;;;;;42.37;37.77;;;13.30;99.90;;;;;;5126214;27;20464;-70
2021/09/03 00:16:32;;;;;;;41.53;37.10;;;13.30;99.90;;;;;;5130000;27;20471;-70
2021/09/03 00:18:59;;;;;;;42.80;38.30;;;13.20;99.90;;;;;;5132377;27;20533;-70
2021/09/03 00:21:26;;;;;;;55.97;42.40;;;13.10;99.90;;;;;;5124253;27;20463;-70
2021/09/03 00:23:52;;;;;;;44.37;39.60;;;13.10;99.90;;;;;;5126393;27;20458;-71
2021/09/03 00:26:20;;;;;;;44.83;40.07;;;13.10;99.90;;;;;;5127047;27;20939;-70
2021/09/03 00:28:48;;;;;;;43.50;38.90;;;13.10;99.90;;;;;;5129443;27;20499;-70
2021/09/03 00:31:16;;;;;;;42.67;38.13;;;13.00;99.90;;;;;;5121339;27;20448;-69
2021/09/03 00:33:46;;;;;;;48.53;43.03;;;13.00;99.90;;;;;;5128320;27;20456;-71
2021/09/03 00:36:13;;;;;;;46.00;41.10;;;12.90;99.90;;;;;;5126824;27;20453;-71
2021/09/03 00:38:40;;;;;;;52.47;42.53;;;12.90;99.90;;;;;;5131295;27;20480;-69
2021/09/03 00:41:08;;;;;;;51.90;43.03;;;13.00;99.90;;;;;;5133994;27;20449;-70
2021/09/03 00:43:36;;;;;;;54.33;40.90;;;13.00;99.90;;;;;;5140429;27;20448;-70
2021/09/03 00:46:05;;;;;;;45.97;40.90;;;12.90;99.90;;;;;;5124448;27;20448;-69
2021/09/03 00:48:32;;;;;;;43.00;38.40;;;12.90;99.90;;;;;;5123564;27;20532;-70
2021/09/03 00:51:00;;;;;;;44.07;39.67;;;12.90;99.90;;;;;;5131644;27;20456;-69
2021/09/03 00:53:28;;;;;;;45.87;40.90;;;12.90;99.90;;;;;;5131066;27;21312;-69
2021/09/03 00:55:55;;;;;;;48.70;41.87;;;12.90;99.90;;;;;;5122420;27;20457;-70
2021/09/03 00:58:22;;;;;;;48.40;39.13;;;12.80;99.90;;;;;;5135977;27;20493;-69
2021/09/03 01:00:49;;;;;;;44.70;40.20;;;12.80;99.90;;;;;;5104562;27;20455;-71
2021/09/03 01:03:17;;;;;;;45.50;40.50;;;12.70;99.90;;;;;;5123252;27;20464;-69
2021/09/03 01:05:46;;;;;;;46.27;37.73;;;12.70;99.90;;;;;;5119521;27;20457;-69
2021/09/03 01:08:15;;;;;;;47.27;40.90;;;12.60;99.90;;;;;;5129942;27;20460;-69
2021/09/03 01:10:42;;;;;;;50.07;40.37;;;12.60;99.90;;;;;;5138917;27;20482;-69
2021/09/03 01:13:11;;;;;;;50.83;41.07;;;12.50;99.90;;;;;;5131531;27;20460;-69
2021/09/03 01:15:40;;;;;;;47.00;41.00;;;12.50;99.90;;;;;;5128281;27;20484;-71
2021/09/03 01:18:08;;;;;;;45.80;41.07;;;12.50;99.90;;;;;;5119597;27;20471;-70
2021/09/03 01:20:37;;;;;;;46.50;39.50;;;12.40;99.90;;;;;;5127801;27;20460;-69
2021/09/03 01:23:05;;;;;;;51.60;44.20;;;12.40;99.90;;;;;;5128125;27;20943;-70
2021/09/03 01:25:32;;;;;;;53.63;45.37;;;12.40;99.90;;;;;;5126733;27;20460;-70
2021/09/03 01:27:59;;;;;;;50.67;45.00;;;12.40;99.90;;;;;;5132390;27;20459;-70
2021/09/03 01:30:26;;;;;;;47.30;40.90;;;12.50;99.90;;;;;;5134192;27;20484;-69
2021/09/03 01:32:54;;;;;;;46.10;41.20;;;12.50;99.90;;;;;;5130620;27;20784;-71
2021/09/03 01:35:21;;;;;;;47.03;40.57;;;12.40;99.90;;;;;;5132115;27;20457;-70
2021/09/03 01:37:47;;;;;;;47.13;42.03;;;12.30;99.90;;;;;;5132103;27;20499;-69
2021/09/03 01:40:16;;;;;;;45.87;41.00;;;12.20;99.90;;;;;;5113906;27;20453;-70
2021/09/03 01:42:44;;;;;;;46.33;41.27;;;12.10;99.90;;;;;;5130905;27;20464;-69
2021/09/03 01:45:11;;;;;;;45.80;41.00;;;12.10;99.90;;;;;;5129237;27;20457;-70
2021/09/03 01:47:38;;;;;;;45.57;40.27;;;12.10;99.90;;;;;;5123697;27;20452;-69
2021/09/03 01:50:07;;;;;;;46.10;39.23;;;12.00;99.90;;;;;;5126660;27;20487;-69
2021/09/03 01:52:34;;;;;;;45.80;40.10;;;11.90;99.90;;;;;;5122600;27;20458;-69
2021/09/03 01:55:01;;;;;;;47.63;40.40;;;11.90;99.90;;;;;;5127095;27;20547;-71
2021/09/03 01:57:29;;;;;;;44.70;39.90;;;11.90;99.90;;;;;;5136287;27;20451;-70
2021/09/03 01:59:56;;;;;;;43.80;39.10;;;11.80;99.90;;;;;;5133147;27;20470;-69
2021/09/03 02:02:23;;;;;;;43.90;37.57;;;11.80;99.90;;;;;;5126901;27;20483;-69
2021/09/03 02:04:50;;;;;;;44.80;39.93;;;11.80;99.90;;;;;;5126663;27;20459;-70
2021/09/03 02:07:17;;;;;;;45.87;40.90;;;11.70;99.90;;;;;;5132624;27;20943;-70
2021/09/03 02:09:44;;;;;;;49.23;41.07;;;11.80;99.90;;;;;;5125727;27;20471;-70
2021/09/03 02:12:41;;;;;;;52.73;44.63;;;11.80;99.90;;;;;;5113733;27;20457;-70
2021/09/03 02:15:38;;;;;;;51.10;42.10;;;11.80;99.90;;;;;;5023137;28;20845;-68
2021/09/03 02:18:35;;;;;;;46.23;41.23;;;11.80;99.90;;;;;;4948334;29;20466;-68
2021/09/03 02:21:31;;;;;;;44.20;39.40;;;11.80;99.90;;;;;;4947384;28;20830;-69
2021/09/03 02:24:29;;;;;;;44.90;39.73;;;11.70;99.90;;;;;;5001336;28;20479;-69
2021/09/03 02:26:55;;;;;;;48.50;40.30;;;11.70;99.90;;;;;;4928643;29;20450;-69
2021/09/03 02:29:24;;;;;;;49.07;43.23;;;11.60;99.90;;;;;;4930647;28;20486;-69
2021/09/03 02:31:51;;;;;;;48.27;42.13;;;11.70;99.90;;;;;;5029183;28;20451;-69
2021/09/03 02:34:18;;;;;;;48.57;39.87;;;11.70;99.90;;;;;;5112350;27;20495;-69
2021/09/03 02:36:45;;;;;;;45.20;40.47;;;11.70;99.90;;;;;;5126996;27;20456;-71
2021/09/03 02:39:13;;;;;;;51.13;43.30;;;11.60;99.90;;;;;;5128540;27;20457;-69
2021/09/03 02:41:39;;;;;;;47.27;42.07;;;11.60;99.90;;;;;;5128653;27;20456;-69
2021/09/03 02:44:07;;;;;;;51.23;43.47;;;11.60;99.90;;;;;;5131399;27;20463;-70
2021/09/03 02:46:38;;;;;;;43.57;38.60;;;11.60;99.90;;;;;;5131500;27;20459;-69
2021/09/03 02:49:07;;;;;;;47.17;39.33;;;11.50;99.90;;;;;;5124680;27;20466;-70
2021/09/03 02:51:34;;;;;;;44.80;39.53;;;11.50;99.90;;;;;;5121936;27;20457;-69
2021/09/03 02:54:02;;;;;;;57.07;45.93;;;11.50;99.90;;;;;;5133564;27;20465;-69
2021/09/03 02:56:29;;;;;;;55.30;45.27;;;11.50;99.90;;;;;;5124466;27;20461;-70
2021/09/03 02:58:56;;;;;;;69.67;45.97;;;11.60;99.90;;;;;;5137815;27;20456;-71
2021/09/03 03:01:23;;;;;;;58.83;43.77;;;11.60;99.90;;;;;;5124075;27;20959;-70
2021/09/03 03:03:52;;;;;;;49.97;42.53;;;11.60;99.90;;;;;;5123868;27;20482;-69
2021/09/03 03:06:18;;;;;;;47.93;40.33;;;11.60;99.90;;;;;;5133932;27;20453;-70
2021/09/03 03:08:47;;;;;;;58.87;46.63;;;11.60;99.90;;;;;;5138210;27;20460;-69
2021/09/03 03:11:14;;;;;;;45.50;40.67;;;11.50;99.90;;;;;;5132779;27;20483;-68
2021/09/03 03:13:46;;;;;;;42.90;38.40;;;11.40;99.90;;;;;;5127810;27;20452;-70
2021/09/03 03:16:14;;;;;;;45.53;40.73;;;11.40;99.90;;;;;;5124860;27;20494;-71
2021/09/03 03:18:41;;;;;;;43.93;39.33;;;11.30;99.90;;;;;;5132532;27;20862;-69
2021/09/03 03:21:10;;;;;;;50.27;41.60;;;11.30;99.90;;;;;;5133491;27;20847;-70
2021/09/03 03:23:38;;;;;;;46.13;40.20;;;11.20;99.90;;;;;;5127164;27;20460;-69
2021/09/03 03:26:07;;;;;;;49.10;41.80;;;11.20;99.90;;;;;;5122053;27;20537;-70
2021/09/03 03:28:35;;;;;;;42.50;38.33;;;11.20;99.90;;;;;;5122766;27;20459;-69
2021/09/03 03:31:02;;;;;;;51.40;43.50;;;11.20;99.90;;;;;;5127309;27;20813;-69
2021/09/03 03:33:29;;;;;;;59.80;46.27;;;11.20;99.90;;;;;;5129453;27;20465;-70
2021/09/03 03:35:57;;;;;;;55.87;46.30;;;11.30;99.90;;;;;;5125628;27;20472;-70
2021/09/03 03:38:27;;;;;;;55.27;45.53;;;11.30;99.90;;;;;;5124679;27;20468;-71
2021/09/03 03:40:54;;;;;;;56.83;45.33;;;11.40;99.90;;;;;;5129034;27;20822;-68
2021/09/03 03:43:21;;;;;;;62.77;46.57;;;11.40;99.90;;;;;;5134253;27;20470;-69
2021/09/03 03:45:48;;;;;;;50.60;40.53;;;11.40;99.90;;;;;;5128659;27;20458;-71
2021/09/03 03:48:16;;;;;;;49.23;40.47;;;11.30;99.90;;;;;;5126833;27;20466;-70
2021/09/03 03:50:43;;;;;;;52.40;42.77;;;11.30;99.90;;;;;;5128267;27;20484;-70
2021/09/03 03:53:11;;;;;;;50.87;42.37;;;11.20;99.90;;;;;;5128096;27;20476;-68
2021/09/03 03:55:40;;;;;;;48.50;41.77;;;11.20;99.90;;;;;;5134238;27;20449;-68
2021/09/03 03:58:07;;;;;;;45.23;40.57;;;11.20;99.90;;;;;;5133261;27;20444;-68
2021/09/03 04:00:35;;;;;;;41.80;37.50;;;11.10;99.90;;;;;;5125631;27;20790;-69
2021/09/03 04:03:02;;;;;;;43.00;38.80;;;11.10;99.90;;;;;;5119511;27;20837;-70
2021/09/03 04:05:29;;;;;;;42.90;38.40;;;11.10;99.90;;;;;;5120889;27;20456;-67
2021/09/03 04:07:56;;;;;;;43.53;38.70;;;11.00;99.90;;;;;;5128522;27;20804;-69
2021/09/03 04:10:23;;;;;;;48.13;40.10;;;10.90;99.90;;;;;;5122112;27;20583;-68
2021/09/03 04:12:53;;;;;;;55.23;41.20;;;10.90;99.90;;;;;;5136284;27;20448;-68
2021/09/03 04:15:20;;;;;;;62.00;44.77;;;10.90;99.90;;;;;;5120284;27;20486;-69
2021/09/03 04:17:48;;;;;;;57.90;44.40;;;11.00;99.90;;;;;;5129998;27;20479;-69
2021/09/03 04:20:14;;;;;;;47.83;42.13;;;11.10;99.90;;;;;;5130398;27;20447;-68
2021/09/03 04:22:42;;;;;;;49.80;42.73;;;11.00;99.90;;;;;;5137199;27;20465;-69
2021/09/03 04:25:09;;;;;;;43.40;38.80;;;11.00;99.90;;;;;;5126074;27;20810;-68
2021/09/03 04:27:39;;;;;;;46.20;40.70;;;11.10;99.90;;;;;;5121939;27;20452;-68
2021/09/03 04:30:09;;;;;;;58.60;45.73;;;11.00;99.90;;;;;;5125793;27;21032;-68
2021/09/03 04:32:36;;;;;;;56.00;44.40;;;11.10;99.90;;;;;;5128731;27;20464;-70
2021/09/03 04:35:03;;;;;;;50.50;41.07;;;11.10;99.90;;;;;;5136825;27;20899;-70
2021/09/03 04:37:30;;;;;;;44.60;39.80;;;11.10;99.90;;;;;;5129880;27;20482;-68
2021/09/03 04:39:57;;;;;;;44.27;38.60;;;11.00;99.90;;;;;;5129479;27;20451;-68
2021/09/03 04:42:24;;;;;;;43.90;39.50;;;10.90;99.90;;;;;;5122069;27;20468;-69
2021/09/03 04:44:51;;;;;;;44.60;39.93;;;10.90;99.90;;;;;;5126784;27;20468;-69
2021/09/03 04:47:19;;;;;;;45.40;39.80;;;10.90;99.90;;;;;;5126835;27;20491;-68
2021/09/03 04:49:46;;;;;;;44.60;39.70;;;10.90;99.90;;;;;;5132264;27;20451;-69
2021/09/03 04:52:14;;;;;;;47.50;40.73;;;10.80;99.90;;;;;;5126970;27;20447;-70
2021/09/03 04:54:40;;;;;;;48.00;39.20;;;10.80;99.90;;;;;;5128242;27;20450;-70
2021/09/03 04:57:07;;;;;;;45.50;39.47;;;10.80;99.90;;;;;;5127549;27;20454;-69
2021/09/03 04:59:34;;;;;;;47.13;42.10;;;10.90;99.90;;;;;;5122344;27;20460;-68
2021/09/03 05:02:01;;;;;;;46.23;39.80;;;10.90;99.90;;;;;;5127797;27;20477;-68
2021/09/03 05:04:29;;;;;;;42.67;38.17;;;10.90;99.90;;;;;;5129033;27;20531;-70
2021/09/03 05:06:56;;;;;;;48.80;41.50;;;11.00;99.90;;;;;;5131183;27;20831;-68
2021/09/03 05:09:23;;;;;;;45.83;40.87;;;10.90;99.90;;;;;;5123546;27;20498;-67
2021/09/03 05:11:50;;;;;;;52.20;42.00;;;11.00;99.90;;;;;;5122442;27;20480;-68
2021/09/03 05:14:17;;;;;;;47.53;41.40;;;11.00;99.90;;;;;;5135022;27;20452;-68
2021/09/03 05:16:44;;;;;;;41.73;37.40;;;11.00;99.90;;;;;;5140855;27;20559;-69
2021/09/03 05:19:11;;;;;;;43.50;38.83;;;11.00;99.90;;;;;;5126319;27;20458;-68
2021/09/03 05:21:40;;;;;;;46.77;41.77;;;11.00;99.90;;;;;;5128405;27;21099;-68
2021/09/03 05:24:08;;;;;;;50.70;42.83;;;11.00;99.90;;;;;;5128300;27;20454;-68
2021/09/03 05:26:35;;;;;;;47.17;42.07;;;11.10;99.90;;;;;;5124230;27;20486;-68
2021/09/03 05:29:02;;;;;;;46.00;41.07;;;11.20;99.90;;;;;;5129508;27;20452;-68
2021/09/03 05:31:29;;;;;;;48.43;41.03;;;11.30;99.90;;;;;;5124347;27;20491;-68
2021/09/03 05:33:56;;;;;;;50.13;43.23;;;11.30;99.90;;;;;;5124075;27;20452;-68
2021/09/03 05:36:23;;;;;;;50.30;39.33;;;11.40;99.90;;;;;;5131350;27;20459;-68
2021/09/03 05:38:52;;;;;;;43.40;38.67;;;11.40;99.90;;;;;;5127398;27;20460;-70
2021/09/03 05:41:20;;;;;;;55.13;44.40;;;11.40;99.90;;;;;;5124382;27;20456;-69
2021/09/03 05:43:46;;;;;;;50.87;39.70;;;11.50;99.90;;;;;;5128807;27;20456;-69
2021/09/03 05:46:14;;;;;;;43.73;39.07;;;11.50;99.90;;;;;;5131781;27;20464;-68
2021/09/03 05:48:41;;;;;;;54.50;40.60;;;11.60;99.90;;;;;;5122889;27;20453;-68
2021/09/03 05:51:08;;;;;;;50.67;42.30;;;11.60;99.90;;;;;;5123779;27;20477;-68
2021/09/03 05:53:35;;;;;;;51.67;43.13;;;11.70;99.90;;;;;;5120324;27;20836;-69
2021/09/03 05:56:06;;;;;;;55.53;44.47;;;11.80;99.90;;;;;;5133292;27;20471;-68
2021/09/03 05:58:36;;;;;;;65.50;46.03;;;11.90;99.90;;;;;;5123132;27;20491;-70
2021/09/03 06:01:03;;;;;;;54.70;43.67;;;12.00;99.90;;;;;;5118973;27;20529;-68
2021/09/03 06:03:30;;;;;;;44.87;39.97;;;12.10;99.90;;;;;;5127647;27;20451;-68
2021/09/03 06:05:58;;;;;;;65.80;43.73;;;12.20;99.90;;;;;;5119737;27;20468;-68
2021/09/03 06:08:26;;;;;;;61.70;42.67;;;12.30;99.90;;;;;;5124084;27;20449;-69
2021/09/03 06:10:52;;;;;;;59.17;44.03;;;12.40;99.90;;;;;;5133373;27;20590;-70
2021/09/03 06:13:21;;;;;;;56.50;44.53;;;12.50;99.90;;;;;;5134539;27;20460;-71
2021/09/03 06:15:48;;;;;;;56.30;43.27;;;12.60;99.90;;;;;;5126096;27;20476;-68
2021/09/03 06:18:15;;;;;;;71.23;47.57;;;12.70;99.90;;;;;;5123335;27;20839;-70
2021/09/03 06:20:41;;;;;;;52.40;43.63;;;12.90;99.90;;;;;;5124025;27;20468;-72
2021/09/03 06:23:08;;;;;;;67.27;46.47;;;13.10;99.90;;;;;;5122597;27;20475;-71
2021/09/03 06:25:36;;;;;;;74.10;47.90;;;13.30;99.90;;;;;;5141698;27;20453;-72
2021/09/03 06:28:03;;;;;;;63.00;49.10;;;13.50;99.90;;;;;;5122438;27;20522;-69
2021/09/03 06:30:31;;;;;;;72.10;49.20;;;13.70;99.90;;;;;;5122142;27;20452;-69
2021/09/03 06:32:58;;;;;;;63.53;47.30;;;13.80;99.90;;;;;;5125296;27;20460;-69
2021/09/03 06:35:27;;;;;;;62.77;46.33;;;14.00;99.90;;;;;;5132795;27;20454;-69
2021/09/03 06:37:54;;;;;;;54.33;44.57;;;14.20;99.90;;;;;;5136778;27;20537;-69
2021/09/03 06:40:21;;;;;;;61.83;46.13;;;14.30;99.90;;;;;;5139616;27;21049;-68
2021/09/03 06:42:49;;;;;;;65.83;44.83;;;14.40;99.90;;;;;;5130586;27;20699;-72
2021/09/03 06:45:17;;;;;;;56.77;43.53;;;14.50;99.90;;;;;;5132792;27;20466;-71
2021/09/03 06:47:45;;;;;;;47.03;41.40;;;14.70;99.90;;;;;;5133787;27;20463;-69
2021/09/03 06:50:12;;;;;;;52.73;40.07;;;14.80;99.90;;;;;;5135035;27;20465;-69
2021/09/03 06:52:41;;;;;;;61.03;42.70;;;14.80;99.90;;;;;;5132638;27;20498;-68
2021/09/03 06:55:10;;;;;;;50.90;42.70;;;14.90;99.90;;;;;;5126668;27;20456;-72
2021/09/03 06:57:38;;;;;;;62.27;44.00;;;15.00;99.90;;;;;;5129983;27;20451;-71
2021/09/03 07:00:07;;;;;;;54.77;45.43;;;15.10;99.90;;;;;;5128783;27;20448;-68
2021/09/03 07:02:34;;;;;;;55.30;42.30;;;15.20;99.90;;;;;;5129135;27;20814;-69
2021/09/03 07:05:03;;;;;;;50.47;42.47;;;15.30;99.90;;;;;;5121849;27;20452;-68
2021/09/03 07:07:30;;;;;;;51.07;42.07;;;15.50;99.90;;;;;;5126205;27;20961;-68
2021/09/03 07:09:59;;;;;;;57.20;43.37;;;15.50;99.90;;;;;;5129986;27;20913;-70
2021/09/03 07:12:26;;;;;;;48.13;43.03;;;15.60;99.90;;;;;;5125971;27;20487;-69
2021/09/03 07:14:53;;;;;;;45.20;40.30;;;15.70;99.90;;;;;;5121921;27;20449;-69
2021/09/03 07:17:21;;;;;;;45.10;40.30;;;15.70;99.90;;;;;;5125168;27;20488;-68
2021/09/03 07:19:48;;;;;;;47.73;42.60;;;15.80;99.90;;;;;;5126133;27;20505;-70
2021/09/03 07:22:17;;;;;;;57.87;40.33;;;15.90;99.90;;;;;;5128750;27;20462;-70
2021/09/03 07:24:44;;;;;;;45.07;40.47;;;16.00;99.90;;;;;;5124038;27;20458;-69
2021/09/03 07:27:11;;;;;;;47.73;39.50;;;16.00;99.90;;;;;;5128148;27;20460;-72
2021/09/03 07:29:38;;;;;;;45.80;40.70;;;16.10;99.90;;;;;;5125304;27;20453;-69
2021/09/03 07:32:07;;;;;;;44.90;40.10;;;16.20;99.90;;;;;;5124375;27;20484;-70
2021/09/03 07:34:35;;;;;;;49.40;40.47;;;16.20;99.90;;;;;;5132283;27;20451;-69
2021/09/03 07:37:02;;;;;;;45.20;40.47;;;16.30;99.90;;;;;;5121469;27;20455;-69
2021/09/03 07:39:32;;;;;;;42.73;37.40;;;16.40;99.90;;;;;;5126861;27;20464;-72
2021/09/03 07:42:00;;;;;;;42.77;38.30;;;16.50;99.90;;;;;;5125532;27;20541;-70
2021/09/03 07:44:27;;;;;;;43.30;38.10;;;16.60;99.90;;;;;;5128701;27;20443;-73
2021/09/03 07:46:55;;;;;;;44.10;39.37;;;16.70;99.90;;;;;;5131766;27;20459;-69
2021/09/03 07:49:22;;;;;;;39.70;35.80;;;16.80;99.90;;;;;;5124227;27;20538;-69
2021/09/03 07:51:50;;;;;;;39.00;35.10;;;16.80;99.90;;;;;;5120651;27;20476;-70
2021/09/03 07:54:18;;;;;;;38.57;34.70;;;17.00;99.90;;;;;;5131585;27;20468;-70
2021/09/03 07:56:46;;;;;;;38.97;35.20;;;17.10;99.90;;;;;;5130716;27;20464;-69
2021/09/03 07:59:14;;;;;;;37.57;33.83;;;17.20;99.90;;;;;;5129917;27;20440;-69
2021/09/03 08:01:40;;;;;;;36.27;32.77;;;17.40;99.90;;;;;;5127298;27;20482;-69
2021/09/03 08:04:08;;;;;;;34.30;30.77;;;17.50;99.90;;;;;;5124279;27;20470;-71
2021/09/03 08:06:34;;;;;;;36.93;33.10;;;17.60;99.90;;;;;;5124428;28;20464;-70
2021/09/03 08:09:03;;;;;;;34.20;30.90;;;17.70;99.90;;;;;;5137141;27;20461;-69
2021/09/03 08:11:30;;;;;;;34.30;31.20;;;17.80;99.90;;;;;;5130761;27;20601;-69
2021/09/03 08:14:00;;;;;;;35.30;31.80;;;18.00;99.90;;;;;;5124205;27;20467;-72
2021/09/03 08:16:27;;;;;;;34.30;30.90;;;18.10;99.90;;;;;;5127033;27;20512;-69
2021/09/03 08:18:54;;;;;;;35.20;31.80;;;18.20;99.90;;;;;;5121761;27;20453;-71
2021/09/03 08:21:21;;;;;;;32.80;29.27;;;18.30;99.90;;;;;;5132796;27;20449;-69
2021/09/03 08:23:48;;;;;;;35.00;30.23;;;18.40;99.90;;;;;;5130187;27;20453;-69
2021/09/03 08:26:14;;;;;;;33.43;30.13;;;18.50;99.90;;;;;;5122185;27;20456;-70
2021/09/03 08:28:42;;;;;;;33.70;30.23;;;18.60;99.90;;;;;;5122019;27;20448;-73
2021/09/03 08:31:11;;;;;;;32.73;29.63;;;18.80;99.90;;;;;;5124160;27;20798;-69
2021/09/03 08:33:39;;;;;;;33.77;30.73;;;18.90;99.90;;;;;;5129137;27;20484;-69
2021/09/03 08:36:07;;;;;;;32.60;29.63;;;18.90;99.90;;;;;;5120882;28;20936;-70
2021/09/03 08:38:35;;;;;;;34.47;30.87;;;19.10;99.90;;;;;;5119155;28;20569;-69
2021/09/03 08:41:01;;;;;;;32.40;29.43;;;19.20;99.90;;;;;;5127407;27;20452;-69
2021/09/03 08:43:29;;;;;;;33.30;30.40;;;19.40;99.90;;;;;;5126275;27;20464;-68
2021/09/03 08:45:56;;;;;;;32.40;29.50;;;19.50;99.90;;;;;;5131748;27;20460;-71
2021/09/03 08:48:26;;;;;;;30.90;28.10;;;19.60;99.90;;;;;;5134346;27;20941;-74
2021/09/03 08:50:55;;;;;;;30.73;28.23;;;19.80;99.90;;;;;;5127378;27;20459;-69
2021/09/03 08:53:24;;;;;;;31.57;28.50;;;19.90;99.90;;;;;;5128901;27;20877;-69
2021/09/03 08:55:55;;;;;;;31.13;28.17;;;20.20;99.90;;;;;;5123100;27;20456;-69
2021/09/03 08:58:23;;;;;;;27.00;24.90;;;20.30;99.90;;;;;;5120318;27;20456;-69
2021/09/03 09:01:05;;;;;;;30.03;27.40;;;20.50;99.90;;;;;;5135968;27;20453;-69
2021/09/03 09:03:36;;;;;;;29.50;26.70;;;20.70;99.90;;;;;;5131669;27;20459;-68
2021/09/03 09:06:03;;;;;;;29.37;26.73;;;20.80;99.90;;;;;;5129125;27;20448;-69
2021/09/03 09:08:32;;;;;;;28.67;25.70;;;21.10;99.90;;;;;;5135386;27;20460;-69
2021/09/03 09:11:01;;;;;;;27.60;24.83;;;21.60;99.90;;;;;;5122838;27;20453;-71
2021/09/03 09:13:31;;;;;;;26.37;23.73;;;22.60;99.90;;;;;;5123133;27;20495;-69
2021/09/03 09:16:05;;;;;;;25.80;23.47;;;23.50;99.90;;;;;;5119752;27;20603;-69
2021/09/03 09:18:40;;;;;;;25.87;23.57;;;24.40;99.90;;;;;;5125120;27;20461;-69
2021/09/03 09:21:26;;;;;;;24.63;22.53;;;25.40;99.90;;;;;;5128909;27;20452;-72
2021/09/03 09:23:56;;;;;;;25.23;23.00;;;26.20;99.90;;;;;;5123581;27;20513;-72
2021/09/03 09:26:25;;;;;;;23.77;21.47;;;26.30;99.90;;;;;;5122144;27;20465;-70
2021/09/03 09:28:53;;;;;;;25.00;22.40;;;26.50;99.90;;;;;;5118572;27;20464;-69
2021/09/03 09:31:45;;;;;;;23.70;21.90;;;26.90;99.90;;;;;;5121548;27;20456;-69
2021/09/03 09:34:19;;;;;;;22.03;20.30;;;27.80;99.90;;;;;;5108204;27;20808;-69
2021/09/03 09:36:48;;;;;;;22.33;20.50;;;28.40;99.90;;;;;;5129144;27;20786;-69
2021/09/03 09:39:16;;;;;;;24.40;22.20;;;28.80;99.90;;;;;;5121243;27;20453;-69
2021/09/03 09:41:45;;;;;;;22.87;21.03;;;28.80;99.90;;;;;;5127074;27;20716;-69
2021/09/03 09:44:12;;;;;;;22.97;21.00;;;28.90;99.90;;;;;;5118437;27;20480;-71
2021/09/03 09:46:39;;;;;;;22.80;20.70;;;29.30;99.90;;;;;;5125966;27;20464;-70
2021/09/03 09:49:14;;;;;;;23.30;21.60;;;29.30;99.90;;;;;;5126845;27;20816;-71
2021/09/03 09:51:52;;;;;;;23.00;21.00;;;29.40;99.90;;;;;;5124336;27;20471;-70
2021/09/03 09:54:21;;;;;;;21.37;20.07;;;29.90;99.90;;;;;;5122483;27;20463;-72
2021/09/03 09:56:51;;;;;;;23.87;21.97;;;29.40;99.90;;;;;;5123914;27;20927;-71
2021/09/03 09:59:20;;;;;;;23.83;21.50;;;30.50;99.90;;;;;;5117540;27;20533;-70
2021/09/03 10:01:50;;;;;;;21.53;19.93;;;29.90;99.90;;;;;;5118057;27;20475;-70
2021/09/03 10:04:19;;;;;;;22.07;20.57;;;29.60;99.90;;;;;;5125214;27;20452;-69
2021/09/03 10:06:49;;;;;;;23.90;21.60;;;29.80;99.90;;;;;;5123120;27;20452;-69
2021/09/03 10:09:19;;;;;;;24.03;22.03;;;30.60;99.90;;;;;;5122970;27;20456;-68
2021/09/03 10:11:48;;;;;;;23.10;21.20;;;30.50;99.90;;;;;;5127316;27;20561;-69
2021/09/03 10:14:17;;;;;;;22.80;20.90;;;30.70;99.90;;;;;;5123128;27;20518;-69
2021/09/03 10:16:46;;;;;;;23.13;21.53;;;30.60;99.30;;;;;;5112479;27;21077;-70
2021/09/03 10:19:15;;;;;;;24.63;22.83;;;30.90;98.90;;;;;;5121679;27;20440;-70
2021/09/03 10:21:42;;;;;;;26.47;24.27;;;31.60;98.10;;;;;;5116687;27;20877;-71
2021/09/03 10:24:15;;;;;;;23.30;21.50;;;31.70;98.10;;;;;;5122027;27;20456;-71
2021/09/03 10:26:44;;;;;;;25.30;23.30;;;31.90;98.60;;;;;;5126971;27;20453;-69
2021/09/03 10:29:24;;;;;;;24.40;22.70;;;31.20;98.70;;;;;;5120613;27;20815;-68
2021/09/03 10:32:23;;;;;;;23.13;21.33;;;30.50;99.00;;;;;;5115461;27;20486;-69
2021/09/03 10:35:00;;;;;;;27.00;20.83;;;29.10;99.90;;;;;;5131714;27;20452;-68
2021/09/03 10:37:39;;;;;;;24.27;22.10;;;29.20;99.90;;;;;;5125416;27;20460;-68
2021/09/03 10:40:23;;;;;;;25.17;23.13;;;29.10;99.90;;;;;;5116668;27;20943;-68
2021/09/03 10:43:00;;;;;;;22.03;20.50;;;28.30;99.90;;;;;;5116133;27;20475;-69
2021/09/03 10:45:34;;;;;;;22.83;21.03;;;28.30;99.90;;;;;;5117477;27;20455;-68
2021/09/03 10:48:23;;;;;;;22.87;21.00;;;29.10;99.90;;;;;;5121405;27;20464;-69
2021/09/03 10:50:54;;;;;;;21.90;20.20;;;29.50;99.70;;;;;;5115918;27;20591;-70
2021/09/03 10:53:24;;;;;;;21.60;20.10;;;29.40;99.90;;;;;;5123231;27;20545;-69
2021/09/03 10:55:58;;;;;;;21.80;20.00;;;29.30;99.90;;;;;;5124696;27;20471;-71
2021/09/03 10:58:55;;;;;;;20.27;18.77;;;29.40;99.00;;;;;;5125411;27;20788;-69
2021/09/03 11:01:45;;;;;;;19.47;18.20;;;29.50;98.70;;;;;;5118606;27;20830;-68
2021/09/03 11:04:14;;;;;;;20.80;19.33;;;29.60;98.70;;;;;;5120242;27;20449;-71
2021/09/03 11:06:48;;;;;;;19.53;18.10;;;30.00;96.90;;;;;;5113424;27;20457;-72
2021/09/03 11:09:24;;;;;;;18.80;17.30;;;30.60;96.30;;;;;;5117006;27;20460;-72
2021/09/03 11:11:55;;;;;;;19.20;17.90;;;30.60;96.50;;;;;;5120812;27;20463;-69
2021/09/03 11:14:23;;;;;;;20.30;19.00;;;31.50;96.70;;;;;;5129961;27;20459;-71
2021/09/03 11:16:53;;;;;;;18.53;17.07;;;31.70;94.90;;;;;;5115687;27;20495;-72
2021/09/03 11:19:22;;;;;;;18.03;16.90;;;32.10;94.50;;;;;;5115271;27;20452;-71
2021/09/03 11:21:51;;;;;;;19.70;18.13;;;32.20;95.20;;;;;;5118572;27;20452;-71
2021/09/03 11:24:20;;;;;;;19.17;17.67;;;32.60;93.40;;;;;;5115367;27;20453;-70
2021/09/03 11:26:48;;;;;;;19.70;18.20;;;32.20;93.70;;;;;;5112208;27;20488;-69
2021/09/03 11:29:22;;;;;;;19.23;17.87;;;32.60;94.50;;;;;;5118925;27;20464;-69
2021/09/03 11:32:01;;;;;;;20.47;19.03;;;32.90;91.90;;;;;;5116011;27;20460;-70
2021/09/03 11:34:50;;;;;;;21.27;19.20;;;32.70;91.50;;;;;;5134061;27;20455;-70
2021/09/03 11:37:36;;;;;;;22.03;20.43;;;33.70;92.10;;;;;;5128398;27;20560;-70
2021/09/03 11:40:09;;;;;;;19.10;17.80;;;33.30;89.50;;;;;;5116706;27;20467;-70
2021/09/03 11:42:38;;;;;;;20.23;18.80;;;33.30;90.80;;;;;;5118157;27;20453;-70
2021/09/03 11:45:12;;;;;;;19.53;18.33;;;33.10;91.10;;;;;;5114610;27;20468;-71
2021/09/03 11:47:46;;;;;;;21.50;19.67;;;33.20;90.60;;;;;;5116617;27;20576;-70
2021/09/03 11:50:16;;;;;;;19.57;18.27;;;32.80;90.20;;;;;;5117411;27;20457;-70
2021/09/03 11:52:45;;;;;;;20.17;18.97;;;32.80;88.90;;;;;;5118187;27;20480;-70
2021/09/03 11:55:15;;;;;;;18.83;17.77;;;32.70;88.40;;;;;;5123936;27;20460;-70
2021/09/03 11:57:58;;;;;;;18.77;17.60;;;32.80;89.70;;;;;;5117537;27;20464;-72
2021/09/03 12:00:28;;;;;;;18.57;17.17;;;32.90;88.60;;;;;;5105073;27;20462;-73
2021/09/03 12:02:56;;;;;;;20.53;18.80;;;33.00;87.20;;;;;;5108941;28;20481;-72
2021/09/03 12:05:24;;;;;;;19.77;18.17;;;32.90;89.20;;;;;;5117589;28;20711;-70
2021/09/03 12:08:02;;;;;;;19.17;18.00;;;32.90;82.80;;;;;;5113475;28;20465;-71
2021/09/03 12:10:34;;;;;;;19.20;18.00;;;33.10;85.10;;;;;;5118829;27;20492;-70
2021/09/03 12:13:07;;;;;;;19.30;18.13;;;33.30;85.20;;;;;;5121625;28;20810;-71
2021/09/03 12:15:35;;;;;;;19.53;18.23;;;34.00;81.30;;;;;;5111948;28;20462;-71
2021/09/03 12:18:04;;;;;;;18.77;17.47;;;34.20;79.50;;;;;;5116271;28;20456;-70
2021/09/03 12:20:31;;;;;;;19.23;18.13;;;34.60;79.00;;;;;;5113619;28;20493;-71
2021/09/03 12:22:58;;;;;;;19.20;17.90;;;34.50;75.20;;;;;;5119036;28;21049;-71
2021/09/03 12:25:33;;;;;;;18.70;17.60;;;34.80;73.60;;;;;;5126534;27;20797;-71
2021/09/03 12:28:11;;;;;;;20.53;18.53;;;35.30;74.10;;;;;;5122221;27;20452;-72
2021/09/03 12:30:40;;;;;;;19.10;17.87;;;35.70;68.40;;;;;;5119204;27;20453;-71
2021/09/03 12:33:25;;;;;;;18.77;17.57;;;35.50;70.00;;;;;;5122033;27;20477;-72
2021/09/03 12:35:54;;;;;;;18.93;17.63;;;35.80;68.70;;;;;;5122252;27;20464;-73
2021/09/03 12:38:45;;;;;;;18.70;17.53;;;35.60;70.20;;;;;;5117473;27;20463;-72
2021/09/03 12:41:16;;;;;;;17.70;16.80;;;35.90;66.30;;;;;;5100935;27;20460;-72